This is the latest recevied weather packets stored in our database for station/object G1OCN-WX. If no packets are shown the sender has not sent any weather packets the latest 10 day(s).
| Time | Temp. | Humidity | Pressure | Rain* | Wind** | Luminosity | Snow |
|---|---|---|---|---|---|---|---|
| 1787996980 | 18.33° C | 91% | 1002.9 hPa | 0 mm | - | - | - |
| 1787996080 | 17.78° C | 91% | 1002.9 hPa | 0 mm | - | - | - |
| 1787995180 | 17.78° C | 91% | 1002.9 hPa | 0.25 mm | - | - | - |
| 1787994280 | 17.78° C | 91% | 1002.9 hPa | 0.25 mm | - | - | - |
| 1787993380 | 17.78° C | 91% | 1003 hPa | 0.25 mm | - | - | - |
| 1787992480 | 17.22° C | 91% | 1003.2 hPa | 0.25 mm | - | - | - |
| 1787991580 | 17.22° C | 91% | 1003.3 hPa | 1.02 mm | - | - | - |
| 1787990680 | 17.22° C | 91% | 1003.5 hPa | 0.76 mm | - | - | - |
| 1787989780 | 16.67° C | 90% | 1003.8 hPa | 1.27 mm | - | - | - |
| 1787987980 | 16.67° C | 90% | 1004.2 hPa | 2.03 mm | - | - | - |
| 1787987080 | 16.11° C | 89% | 1004.5 hPa | 4.57 mm | - | - | - |
| 1787986180 | 16.11° C | 89% | 1004.6 hPa | 5.08 mm | - | - | - |
| 1787985280 | 16.11° C | 89% | 1004.9 hPa | 5.33 mm | - | - | - |
| 1787984380 | 15.56° C | 87% | 1005.3 hPa | 4.57 mm | - | - | - |
| 1787983480 | 16.67° C | 88% | 1005.3 hPa | 2.54 mm | - | - | - |
| 1787982580 | 17.22° C | 88% | 1005.5 hPa | 1.78 mm | - | - | - |
| 1787981679 | 17.22° C | 87% | 1005.7 hPa | 1.52 mm | - | - | - |
| 1787980780 | 17.22° C | 87% | 1005.9 hPa | 1.02 mm | - | - | - |
| 1787979879 | 17.22° C | 87% | 1006.3 hPa | 0.51 mm | - | - | - |
| 1787978979 | 17.22° C | 86% | 1006.4 hPa | 0.25 mm | - | - | - |
| 1787978079 | 17.22° C | 85% | 1006.8 hPa | 0 mm | - | - | - |
| 1787977179 | 17.22° C | 84% | 1007.1 hPa | 0 mm | - | - | - |
| 1787976279 | 17.78° C | 84% | 1007.3 hPa | 0 mm | - | - | - |
| 1787975379 | 17.78° C | 85% | 1007.4 hPa | 0 mm | - | - | - |
| 1787974479 | 17.22° C | 85% | 1007.6 hPa | 0 mm | - | - | - |
* Rain latest hour (hover to see other rain measurements)
** Current wind speed in m/s (hover to see current wind gust speed)